Time;durP1;ratioP1;P1;durP2;ratioP2;P2;SDS_P1;SDS_P2;PMS_P1;PMS_P2;Temp;Humidity;BMP_temperature;BMP_pressure;BME280_temperature;BME280_humidity;BME280_pressure;Samples;Min_cycle;Max_cycle;Signal;HPM_P1;HPM_P2
2023/01/29 00:00:38;;;;;;;16.55;11.10;;;0.00;99.90;;;;;;2038139;29;20253;-70
2023/01/29 00:01:39;;;;;;;17.75;11.73;;;0.00;99.90;;;;;;2049474;28;20057;-66
2023/01/29 00:02:40;;;;;;;17.85;11.38;;;0.00;99.90;;;;;;2045758;28;20482;-69
2023/01/29 00:03:40;;;;;;;17.50;10.50;;;0.00;99.90;;;;;;2040983;28;20027;-73
2023/01/29 00:04:41;;;;;;;16.63;10.77;;;0.10;99.90;;;;;;2047443;28;20464;-69
2023/01/29 00:05:41;;;;;;;17.08;11.30;;;0.00;99.90;;;;;;2049692;28;20023;-69
2023/01/29 00:06:42;;;;;;;19.08;11.30;;;0.00;99.90;;;;;;2050643;28;20038;-69
2023/01/29 00:07:43;;;;;;;17.20;11.30;;;0.00;99.90;;;;;;2043338;28;20039;-69
2023/01/29 00:08:43;;;;;;;17.88;11.85;;;0.00;99.90;;;;;;2047400;28;20037;-69
2023/01/29 00:09:44;;;;;;;17.13;11.20;;;0.00;99.90;;;;;;2044676;28;20098;-69
2023/01/29 00:10:44;;;;;;;17.33;11.15;;;0.00;99.90;;;;;;2050995;28;20038;-69
2023/01/29 00:11:45;;;;;;;18.48;11.20;;;0.00;99.90;;;;;;2046108;28;20153;-69
2023/01/29 00:12:46;;;;;;;17.17;10.98;;;0.00;99.90;;;;;;2042819;28;20756;-69
2023/01/29 00:13:47;;;;;;;17.35;10.88;;;0.00;99.90;;;;;;2048108;28;20031;-68
2023/01/29 00:14:47;;;;;;;18.98;11.00;;;0.00;99.90;;;;;;2035576;29;20417;-71
2023/01/29 00:15:56;;;;;;;16.80;10.48;;;0.00;99.90;;;;;;2038862;29;20094;-69
2023/01/29 00:16:56;;;;;;;16.83;10.07;;;0.00;99.90;;;;;;2044864;28;20015;-70
2023/01/29 00:17:57;;;;;;;16.95;10.27;;;0.00;99.90;;;;;;2040063;29;20541;-71
2023/01/29 00:18:57;;;;;;;16.08;10.32;;;0.00;99.90;;;;;;2040776;29;20455;-68
2023/01/29 00:19:58;;;;;;;16.33;10.65;;;0.00;99.90;;;;;;2047823;28;20113;-70
2023/01/29 00:20:59;;;;;;;16.17;10.55;;;0.00;99.90;;;;;;2046393;28;20027;-68
2023/01/29 00:21:59;;;;;;;16.85;10.75;;;0.00;99.90;;;;;;2048469;28;20046;-69
2023/01/29 00:23:00;;;;;;;18.50;11.13;;;0.00;99.90;;;;;;2044508;28;20023;-68
2023/01/29 00:24:00;;;;;;;15.82;10.57;;;0.00;99.90;;;;;;2038412;29;20038;-69
2023/01/29 00:25:01;;;;;;;16.25;10.40;;;-0.10;99.90;;;;;;2037582;29;20059;-69
2023/01/29 00:26:02;;;;;;;17.48;9.95;;;0.00;99.90;;;;;;2047648;28;20035;-70
2023/01/29 00:27:03;;;;;;;16.92;10.82;;;0.00;99.90;;;;;;2046718;28;20033;-68
2023/01/29 00:28:03;;;;;;;15.13;10.45;;;0.00;99.90;;;;;;2035586;29;20144;-68
2023/01/29 00:29:04;;;;;;;17.85;11.18;;;0.00;99.90;;;;;;2038003;29;20102;-69
2023/01/29 00:30:11;;;;;;;17.50;10.45;;;-0.10;99.90;;;;;;2045482;28;20122;-68
2023/01/29 00:31:18;;;;;;;17.23;10.70;;;-0.10;99.90;;;;;;2046245;28;20559;-68
2023/01/29 00:32:19;;;;;;;16.50;10.75;;;-0.10;99.90;;;;;;2044379;28;20031;-67
2023/01/29 00:33:19;;;;;;;17.35;10.70;;;-0.10;99.90;;;;;;2038734;29;20502;-68
2023/01/29 00:34:21;;;;;;;17.92;10.82;;;-0.10;99.90;;;;;;2037854;29;20396;-70
2023/01/29 00:35:22;;;;;;;16.42;10.25;;;-0.10;99.90;;;;;;2046152;28;20049;-72
2023/01/29 00:36:24;;;;;;;17.48;10.32;;;-0.10;99.90;;;;;;2040749;29;20266;-69
2023/01/29 00:37:25;;;;;;;14.77;10.07;;;-0.10;99.90;;;;;;2034495;28;20774;-67
2023/01/29 00:38:26;;;;;;;16.10;10.68;;;-0.10;99.90;;;;;;2047189;28;20031;-68
2023/01/29 00:39:37;;;;;;;16.23;10.75;;;-0.20;99.90;;;;;;2038400;29;20043;-68
2023/01/29 00:45:56;;;;;;;15.50;9.95;;;-0.20;99.90;;;;;;2037035;29;20027;-69
2023/01/29 00:46:57;;;;;;;17.05;10.63;;;-0.20;99.90;;;;;;2036625;29;20119;-69
2023/01/29 00:47:58;;;;;;;16.30;10.60;;;-0.20;99.90;;;;;;2044213;28;20031;-69
2023/01/29 00:48:58;;;;;;;16.73;10.10;;;-0.20;99.90;;;;;;2033855;29;20063;-69
2023/01/29 00:50:10;;;;;;;17.10;10.80;;;-0.20;99.90;;;;;;2034039;29;20451;-69
2023/01/29 00:51:11;;;;;;;16.52;10.48;;;-0.20;99.90;;;;;;2042539;28;20499;-68
2023/01/29 00:52:24;;;;;;;15.95;10.40;;;-0.20;99.90;;;;;;2042239;29;20032;-69
2023/01/29 00:53:24;;;;;;;18.08;10.93;;;-0.10;99.90;;;;;;2046358;28;20035;-70
2023/01/29 00:54:25;;;;;;;18.13;11.05;;;-0.10;99.90;;;;;;2042406;29;20266;-70
2023/01/29 00:55:25;;;;;;;15.82;10.45;;;-0.10;99.90;;;;;;2044639;29;20102;-68
2023/01/29 00:56:27;;;;;;;19.10;11.25;;;-0.10;99.90;;;;;;2035972;29;20052;-69
2023/01/29 00:57:31;;;;;;;17.02;11.05;;;-0.10;99.90;;;;;;2026024;29;20032;-69
2023/01/29 00:58:34;;;;;;;17.63;11.10;;;-0.10;99.90;;;;;;2034040;29;20330;-69
2023/01/29 00:59:34;;;;;;;16.60;10.55;;;-0.10;99.90;;;;;;2041683;29;20034;-69
2023/01/29 01:00:35;;;;;;;16.65;10.30;;;-0.10;99.90;;;;;;2043712;29;20562;-69
2023/01/29 01:03:04;;;;;;;19.20;11.52;;;-0.10;99.90;;;;;;2046822;28;20022;-70
2023/01/29 01:04:06;;;;;;;17.63;11.43;;;-0.10;99.90;;;;;;2034088;29;20027;-70
2023/01/29 01:05:16;;;;;;;17.85;11.48;;;-0.10;99.90;;;;;;2025775;29;20122;-69
2023/01/29 01:06:17;;;;;;;20.83;11.50;;;-0.10;99.90;;;;;;2034885;29;20043;-69
2023/01/29 01:07:17;;;;;;;17.75;11.48;;;-0.10;99.90;;;;;;2041512;28;20334;-69
2023/01/29 01:11:05;;;;;;;19.88;12.13;;;-0.10;99.90;;;;;;2038955;28;20082;-67
2023/01/29 01:12:06;;;;;;;17.92;12.00;;;-0.10;99.90;;;;;;2044317;28;20439;-69
2023/01/29 01:13:07;;;;;;;18.75;12.48;;;-0.10;99.90;;;;;;2031195;29;20067;-69
2023/01/29 01:14:08;;;;;;;18.13;12.68;;;-0.10;99.90;;;;;;2034242;29;20392;-70
2023/01/29 01:15:09;;;;;;;17.65;11.95;;;-0.10;99.90;;;;;;2033712;29;20047;-70
2023/01/29 01:16:12;;;;;;;21.60;12.82;;;-0.10;99.90;;;;;;2037059;29;20554;-70
2023/01/29 01:17:14;;;;;;;19.42;13.20;;;-0.10;99.90;;;;;;2039527;29;20051;-69
2023/01/29 01:18:21;;;;;;;19.48;12.98;;;-0.10;99.90;;;;;;2045542;28;20449;-69
2023/01/29 01:19:21;;;;;;;19.13;12.27;;;-0.10;99.90;;;;;;2043886;28;20531;-71
2023/01/29 01:20:26;;;;;;;20.75;12.75;;;-0.10;99.90;;;;;;2041866;28;20042;-68
2023/01/29 01:21:26;;;;;;;18.60;12.07;;;-0.10;99.90;;;;;;2041883;28;20040;-69
2023/01/29 01:22:27;;;;;;;21.50;13.00;;;-0.10;99.90;;;;;;2042795;29;20039;-69
2023/01/29 01:23:28;;;;;;;19.92;13.10;;;-0.10;99.90;;;;;;2036308;29;20491;-68
2023/01/29 01:24:31;;;;;;;19.80;13.38;;;-0.20;99.90;;;;;;2034312;29;20032;-71
2023/01/29 01:25:32;;;;;;;20.13;13.32;;;-0.20;99.90;;;;;;2042686;29;20035;-68
2023/01/29 01:26:34;;;;;;;19.52;13.05;;;-0.20;99.90;;;;;;2034915;29;20422;-69
2023/01/29 01:27:39;;;;;;;18.58;12.55;;;-0.10;99.90;;;;;;2040140;29;20231;-73
2023/01/29 01:28:43;;;;;;;19.63;12.90;;;-0.20;99.90;;;;;;2036181;29;20028;-70
2023/01/29 01:29:45;;;;;;;19.45;13.00;;;-0.10;99.90;;;;;;2036822;29;20542;-70
2023/01/29 01:30:46;;;;;;;20.23;14.07;;;-0.10;99.90;;;;;;2046526;29;20471;-71
2023/01/29 01:31:46;;;;;;;18.20;13.10;;;-0.20;99.90;;;;;;2044530;28;20043;-69
2023/01/29 01:32:47;;;;;;;17.85;12.80;;;-0.10;99.90;;;;;;2045948;29;20503;-69
2023/01/29 01:33:48;;;;;;;18.58;13.23;;;-0.20;99.90;;;;;;2046694;29;20547;-70
2023/01/29 01:34:48;;;;;;;19.13;13.45;;;-0.20;99.90;;;;;;2038477;29;20054;-70
2023/01/29 01:35:49;;;;;;;21.38;14.38;;;-0.20;99.90;;;;;;2044086;29;20268;-70
2023/01/29 01:36:49;;;;;;;19.73;13.38;;;-0.20;99.90;;;;;;2044715;29;20027;-68
2023/01/29 01:37:50;;;;;;;20.02;13.93;;;-0.20;99.90;;;;;;2046753;28;20046;-71
2023/01/29 01:38:50;;;;;;;19.65;14.25;;;-0.20;99.90;;;;;;2044425;29;20027;-69
2023/01/29 01:39:56;;;;;;;19.52;12.82;;;-0.20;99.90;;;;;;2045263;29;20233;-69
2023/01/29 01:40:57;;;;;;;19.67;13.75;;;-0.20;99.90;;;;;;2045975;28;21361;-72
2023/01/29 01:41:59;;;;;;;18.33;13.10;;;-0.20;99.90;;;;;;2034556;29;20407;-75
2023/01/29 01:43:00;;;;;;;20.15;13.73;;;-0.20;99.90;;;;;;2036568;29;20042;-78
2023/01/29 01:44:03;;;;;;;19.77;14.27;;;-0.20;99.90;;;;;;2043427;28;20047;-80
2023/01/29 01:45:06;;;;;;;18.20;13.25;;;-0.20;99.90;;;;;;2041207;29;20035;-79
2023/01/29 01:46:08;;;;;;;19.23;14.05;;;-0.20;99.90;;;;;;2035428;29;20554;-78
2023/01/29 01:47:09;;;;;;;20.77;13.98;;;-0.20;99.90;;;;;;2027416;29;20284;-79
2023/01/29 01:48:17;;;;;;;18.50;14.25;;;-0.20;99.90;;;;;;2034807;29;20035;-80
2023/01/29 01:49:20;;;;;;;19.33;14.10;;;-0.20;99.90;;;;;;2041791;28;20415;-79
2023/01/29 01:50:38;;;;;;;21.80;14.35;;;-0.30;99.90;;;;;;2046756;28;20525;-78
2023/01/29 01:51:43;;;;;;;22.35;14.35;;;-0.20;99.90;;;;;;2031649;29;20355;-78
2023/01/29 01:52:50;;;;;;;22.00;14.15;;;-0.20;99.90;;;;;;2031794;29;20570;-78
2023/01/29 01:53:56;;;;;;;21.27;14.75;;;-0.20;99.90;;;;;;2041950;29;20058;-69
2023/01/29 01:54:58;;;;;;;20.25;14.30;;;-0.20;99.90;;;;;;2033692;29;20035;-69
2023/01/29 01:56:02;;;;;;;17.98;13.50;;;-0.20;99.90;;;;;;2033729;29;20035;-68
2023/01/29 01:57:08;;;;;;;21.02;14.82;;;-0.20;99.90;;;;;;2039914;28;20028;-69
2023/01/29 01:58:13;;;;;;;20.08;14.27;;;-0.30;99.90;;;;;;2033427;29;20059;-67
2023/01/29 01:59:17;;;;;;;20.38;14.38;;;-0.20;99.90;;;;;;2034795;29;20047;-68
2023/01/29 02:00:20;;;;;;;20.75;14.82;;;-0.20;99.90;;;;;;2044262;29;20148;-69
2023/01/29 02:01:28;;;;;;;21.80;14.65;;;-0.20;99.90;;;;;;2043462;29;20038;-70
2023/01/29 02:09:35;;;;;;;24.45;15.98;;;-0.30;99.90;;;;;;2043465;28;20114;-69
2023/01/29 02:10:45;;;;;;;23.15;15.23;;;-0.30;99.90;;;;;;2038148;29;20083;-69
2023/01/29 02:11:45;;;;;;;23.10;14.75;;;-0.40;99.90;;;;;;2038128;29;20455;-69
2023/01/29 02:12:46;;;;;;;22.95;15.90;;;-0.40;99.90;;;;;;2043277;29;20162;-69
2023/01/29 02:13:52;;;;;;;23.92;15.77;;;-0.40;99.90;;;;;;2040947;28;20870;-69
2023/01/29 02:14:59;;;;;;;23.27;15.57;;;-0.40;99.90;;;;;;2040626;29;20035;-69
2023/01/29 02:16:00;;;;;;;22.08;15.75;;;-0.40;99.90;;;;;;2042146;28;20065;-69
2023/01/29 02:17:00;;;;;;;23.67;16.02;;;-0.50;99.90;;;;;;2042264;29;20102;-70
2023/01/29 02:18:01;;;;;;;25.02;16.50;;;-0.50;99.90;;;;;;2034984;29;20044;-70
2023/01/29 02:19:05;;;;;;;23.40;16.27;;;-0.50;99.90;;;;;;2032994;29;20035;-68
2023/01/29 02:20:28;;;;;;;22.65;16.33;;;-0.50;99.90;;;;;;2041313;28;20678;-69
2023/01/29 02:21:35;;;;;;;23.60;16.23;;;-0.60;99.90;;;;;;2040410;29;20106;-68
2023/01/29 02:23:12;;;;;;;22.85;16.23;;;-0.60;99.90;;;;;;2044816;29;20043;-70
2023/01/29 02:24:24;;;;;;;25.50;16.60;;;-0.60;99.90;;;;;;2043160;28;20463;-70
2023/01/29 02:25:56;;;;;;;22.42;15.73;;;-0.70;99.90;;;;;;2042901;28;20027;-68
2023/01/29 02:27:07;;;;;;;25.52;16.52;;;-0.70;99.90;;;;;;2043002;28;20479;-70
2023/01/29 02:28:41;;;;;;;23.52;15.90;;;-0.80;99.90;;;;;;2042922;28;20486;-70
2023/01/29 02:30:12;;;;;;;24.30;16.58;;;-0.80;99.90;;;;;;2043100;28;20169;-67
2023/01/29 02:31:33;;;;;;;24.35;16.80;;;-0.80;99.90;;;;;;2042821;29;20497;-69
2023/01/29 02:32:57;;;;;;;26.45;17.02;;;-0.90;99.90;;;;;;2040286;29;20036;-69
2023/01/29 02:34:16;;;;;;;23.65;16.63;;;-0.90;99.90;;;;;;2042499;28;20132;-68
2023/01/29 02:35:27;;;;;;;24.25;16.70;;;-0.90;99.90;;;;;;2043093;28;20126;-67
2023/01/29 02:36:39;;;;;;;23.80;16.80;;;-1.00;99.90;;;;;;2043524;29;20110;-68
2023/01/29 02:37:53;;;;;;;25.60;17.85;;;-1.00;99.90;;;;;;2034313;29;20099;-68
2023/01/29 02:39:07;;;;;;;25.70;17.05;;;-1.00;99.90;;;;;;2036674;28;20056;-69
2023/01/29 02:40:23;;;;;;;27.00;18.08;;;-1.00;99.90;;;;;;2035028;29;20421;-69
2023/01/29 02:41:30;;;;;;;27.25;17.90;;;-1.00;99.90;;;;;;2036986;29;20518;-69
2023/01/29 02:42:39;;;;;;;29.52;18.67;;;-1.10;99.90;;;;;;2042978;29;20557;-68
2023/01/29 02:43:46;;;;;;;26.92;18.42;;;-1.00;99.90;;;;;;2042745;28;20467;-69
2023/01/29 02:45:14;;;;;;;30.02;19.45;;;-1.10;99.90;;;;;;2037354;28;20054;-68
2023/01/29 02:46:19;;;;;;;28.50;19.23;;;-1.10;99.90;;;;;;2033403;29;20039;-70
2023/01/29 02:47:34;;;;;;;29.58;19.55;;;-1.20;99.90;;;;;;2033425;29;20039;-68
2023/01/29 02:48:48;;;;;;;29.08;18.98;;;-1.20;99.90;;;;;;2039938;28;20170;-69
2023/01/29 02:49:58;;;;;;;28.23;18.83;;;-1.20;99.90;;;;;;2040416;28;20050;-69
2023/01/29 02:51:04;;;;;;;28.35;19.00;;;-1.20;99.90;;;;;;2043618;29;20118;-70
2023/01/29 02:52:18;;;;;;;28.98;19.48;;;-1.20;99.90;;;;;;2043494;28;20157;-69
2023/01/29 02:53:41;;;;;;;32.25;19.65;;;-1.20;99.90;;;;;;2043626;28;20534;-69
2023/01/29 02:54:52;;;;;;;29.50;18.95;;;-1.20;99.90;;;;;;2034658;29;20039;-69
2023/01/29 02:56:12;;;;;;;30.52;19.45;;;-1.20;99.90;;;;;;2036083;29;20032;-68
2023/01/29 02:57:19;;;;;;;28.00;18.80;;;-1.20;99.90;;;;;;2043267;29;20027;-68
2023/01/29 02:58:41;;;;;;;29.50;19.10;;;-1.30;99.90;;;;;;2043359;28;20043;-68
2023/01/29 02:59:54;;;;;;;30.85;19.90;;;-1.30;99.90;;;;;;2044858;29;20027;-68
2023/01/29 03:01:03;;;;;;;29.23;19.08;;;-1.30;99.90;;;;;;2036880;29;20122;-68
2023/01/29 03:02:15;;;;;;;28.15;18.90;;;-1.30;99.90;;;;;;2037027;29;20023;-68
2023/01/29 03:03:20;;;;;;;31.20;19.40;;;-1.30;99.90;;;;;;2034880;29;20562;-68
2023/01/29 03:04:29;;;;;;;32.75;19.60;;;-1.30;99.90;;;;;;2027859;29;20088;-69
2023/01/29 03:05:42;;;;;;;29.45;19.55;;;-1.30;99.90;;;;;;2029417;29;20036;-70
2023/01/29 03:06:53;;;;;;;31.25;19.98;;;-1.30;99.90;;;;;;2033113;29;20051;-69
2023/01/29 03:08:00;;;;;;;29.20;18.63;;;-1.30;99.90;;;;;;2039451;28;20353;-70
2023/01/29 03:09:26;;;;;;;30.55;19.73;;;-1.30;99.90;;;;;;2042675;29;20557;-69
2023/01/29 03:10:46;;;;;;;27.48;18.15;;;-1.30;99.90;;;;;;2042835;28;20130;-68
2023/01/29 03:11:53;;;;;;;30.70;19.63;;;-1.30;99.90;;;;;;2039789;29;20086;-69
2023/01/29 03:13:08;;;;;;;28.73;18.98;;;-1.30;99.90;;;;;;2027138;29;20036;-69
2023/01/29 03:14:15;;;;;;;27.70;18.42;;;-1.30;99.90;;;;;;2036001;29;20459;-69
2023/01/29 03:15:25;;;;;;;29.77;19.23;;;-1.20;99.90;;;;;;2034452;29;20028;-70
2023/01/29 03:16:53;;;;;;;30.80;18.75;;;-1.20;99.90;;;;;;2037309;28;20031;-69
2023/01/29 03:18:07;;;;;;;29.00;19.15;;;-1.20;99.90;;;;;;2042521;28;20031;-70
2023/01/29 03:19:21;;;;;;;30.83;19.17;;;-1.20;99.90;;;;;;2044883;29;20027;-71
2023/01/29 03:20:30;;;;;;;29.48;18.55;;;-1.10;99.90;;;;;;2048360;28;20050;-71
2023/01/29 03:21:57;;;;;;;32.70;19.20;;;-1.10;99.90;;;;;;2044107;28;20043;-70
2023/01/29 03:23:07;;;;;;;30.92;19.42;;;-1.10;99.90;;;;;;2043627;29;20099;-70
2023/01/29 03:32:37;;;;;;;34.13;19.55;;;-1.10;99.90;;;;;;2029127;29;20036;-70
2023/01/29 03:33:44;;;;;;;31.15;19.23;;;-1.10;99.90;;;;;;2037258;29;20606;-70
2023/01/29 03:34:52;;;;;;;30.25;19.27;;;-1.20;99.90;;;;;;2043056;29;20043;-68
2023/01/29 03:36:02;;;;;;;30.33;19.00;;;-1.20;99.90;;;;;;2038117;29;20036;-70
2023/01/29 03:37:37;;;;;;;31.83;19.38;;;-1.20;99.90;;;;;;2034384;29;20039;-70
2023/01/29 03:38:39;;;;;;;29.35;17.85;;;-1.20;99.90;;;;;;2041470;29;20094;-70
2023/01/29 03:39:41;;;;;;;29.33;18.67;;;-1.30;99.90;;;;;;2043085;29;20041;-71
2023/01/29 03:41:03;;;;;;;31.58;18.75;;;-1.30;99.90;;;;;;2034477;29;20095;-69
2023/01/29 03:42:16;;;;;;;29.10;18.65;;;-1.20;99.90;;;;;;2039131;29;20417;-70
2023/01/29 03:43:36;;;;;;;30.00;17.98;;;-1.30;99.90;;;;;;2036102;29;20578;-70
2023/01/29 03:44:52;;;;;;;30.08;18.35;;;-1.30;99.90;;;;;;2024305;29;20039;-70
2023/01/29 03:46:17;;;;;;;28.70;18.17;;;-1.30;99.90;;;;;;2029046;29;20031;-70
2023/01/29 03:47:27;;;;;;;29.05;17.80;;;-1.40;99.90;;;;;;2034407;29;20027;-69
2023/01/29 03:48:32;;;;;;;28.42;16.98;;;-1.40;99.90;;;;;;2044068;28;20459;-69
2023/01/29 03:49:56;;;;;;;27.38;17.30;;;-1.40;99.90;;;;;;2034741;29;20192;-69
2023/01/29 03:51:46;;;;;;;27.42;17.23;;;-1.40;99.90;;;;;;2035169;29;20032;-69
2023/01/29 03:52:58;;;;;;;27.13;16.80;;;-1.40;99.90;;;;;;2016554;29;20040;-68
2023/01/29 03:54:08;;;;;;;26.33;16.98;;;-1.50;99.90;;;;;;2016924;29;20895;-70
2023/01/29 03:55:15;;;;;;;;;;;-1.50;99.90;;;;;;2028697;29;20307;-70
2023/01/29 03:56:33;;;;;;;28.60;16.50;;;-1.50;99.90;;;;;;2032036;29;19937;-70
2023/01/29 03:57:41;;;;;;;27.40;17.17;;;-1.50;99.90;;;;;;2038356;29;20122;-69
2023/01/29 03:59:01;;;;;;;25.95;16.45;;;-1.60;99.90;;;;;;2031200;29;20063;-69
2023/01/29 04:00:26;;;;;;;27.10;16.95;;;-1.60;99.90;;;;;;2038356;29;20458;-69
2023/01/29 04:01:52;;;;;;;28.30;17.63;;;-1.60;99.90;;;;;;2044273;29;20028;-68
2023/01/29 04:03:16;;;;;;;28.60;16.95;;;-1.60;99.90;;;;;;2043514;28;20517;-69
2023/01/29 04:04:23;;;;;;;26.35;16.95;;;-1.60;99.90;;;;;;2042267;28;20062;-69
2023/01/29 04:05:30;;;;;;;28.02;17.73;;;-1.70;99.90;;;;;;2033808;29;20245;-69
2023/01/29 04:06:57;;;;;;;28.73;17.52;;;-1.70;99.90;;;;;;2037121;29;20529;-69
2023/01/29 04:08:07;;;;;;;27.95;17.52;;;-1.70;99.90;;;;;;2041049;29;20640;-69
2023/01/29 04:09:20;;;;;;;26.85;17.20;;;-1.70;99.90;;;;;;2049359;28;20038;-69
2023/01/29 04:10:26;;;;;;;30.75;17.88;;;-1.70;99.90;;;;;;2034039;29;20419;-69
2023/01/29 04:11:28;;;;;;;25.50;16.73;;;-1.70;99.90;;;;;;2032776;29;20056;-69
2023/01/29 04:12:34;;;;;;;28.42;17.48;;;-1.70;99.90;;;;;;2034095;29;20047;-69
2023/01/29 04:13:35;;;;;;;27.88;17.77;;;-1.70;99.90;;;;;;2039244;29;20127;-69
2023/01/29 04:14:37;;;;;;;25.05;16.85;;;-1.80;99.90;;;;;;2042354;28;20110;-68
2023/01/29 04:15:49;;;;;;;26.85;17.30;;;-1.80;99.90;;;;;;2029728;29;20032;-68
2023/01/29 04:16:56;;;;;;;25.10;16.25;;;-1.80;99.90;;;;;;2020217;29;20201;-68
2023/01/29 04:18:12;;;;;;;24.00;15.35;;;-1.80;99.90;;;;;;2031131;29;20399;-69
2023/01/29 04:19:33;;;;;;;28.42;16.70;;;-1.80;99.90;;;;;;2038487;29;20526;-68
2023/01/29 04:20:35;;;;;;;26.55;16.75;;;-1.80;99.90;;;;;;2040771;28;20144;-69
2023/01/29 04:21:38;;;;;;;28.45;16.90;;;-1.80;99.90;;;;;;2044218;29;20130;-68
2023/01/29 04:22:45;;;;;;;26.80;17.27;;;-1.80;99.90;;;;;;2042240;29;20039;-69
2023/01/29 04:23:45;;;;;;;28.38;18.40;;;-1.80;99.90;;;;;;2041180;28;20035;-68
2023/01/29 04:24:47;;;;;;;28.67;17.30;;;-1.70;99.90;;;;;;2029837;29;20422;-68
2023/01/29 04:26:11;;;;;;;24.35;15.40;;;-1.80;99.90;;;;;;2035269;28;20412;-68
2023/01/29 04:27:25;;;;;;;24.55;16.08;;;-1.80;99.90;;;;;;2042680;28;20031;-69
2023/01/29 04:28:48;;;;;;;27.15;16.58;;;-1.80;99.90;;;;;;2029577;29;20036;-68
2023/01/29 04:30:06;;;;;;;26.15;16.85;;;-1.80;99.90;;;;;;2038709;29;20027;-69
2023/01/29 04:31:11;;;;;;;24.20;15.98;;;-1.90;99.90;;;;;;2042023;29;20407;-69
2023/01/29 04:32:19;;;;;;;25.25;16.17;;;-1.90;99.90;;;;;;2042368;28;20111;-69
2023/01/29 04:33:57;;;;;;;25.92;16.40;;;-1.90;99.90;;;;;;2044220;29;20051;-69
2023/01/29 04:35:13;;;;;;;25.15;15.77;;;-1.90;99.90;;;;;;2039158;29;20119;-68
2023/01/29 04:36:36;;;;;;;27.08;16.85;;;-1.90;99.90;;;;;;2031911;29;20168;-68
2023/01/29 04:38:10;;;;;;;26.92;16.42;;;-1.90;99.90;;;;;;2037528;29;20035;-67
2023/01/29 04:39:30;;;;;;;27.50;16.77;;;-1.90;99.90;;;;;;2042252;28;20142;-68
2023/01/29 04:41:12;;;;;;;26.08;16.50;;;-1.80;99.90;;;;;;2047532;28;20051;-68
2023/01/29 04:42:30;;;;;;;29.17;16.77;;;-1.80;99.90;;;;;;2039841;28;20023;-70
2023/01/29 04:43:46;;;;;;;27.73;16.48;;;-1.80;99.90;;;;;;2042476;28;20049;-68
2023/01/29 04:45:00;;;;;;;25.83;16.27;;;-1.90;99.90;;;;;;2037708;28;20020;-69
2023/01/29 04:46:11;;;;;;;27.35;16.83;;;-1.90;99.90;;;;;;2040112;29;20045;-69
2023/01/29 04:47:40;;;;;;;25.58;16.27;;;-1.90;99.90;;;;;;2042320;28;20031;-69
2023/01/29 04:49:04;;;;;;;28.67;17.30;;;-2.00;99.90;;;;;;2032045;29;20043;-68
2023/01/29 04:50:10;;;;;;;26.33;16.73;;;-2.00;99.90;;;;;;2031111;29;20032;-68
2023/01/29 04:51:32;;;;;;;28.30;17.17;;;-2.00;99.90;;;;;;2034965;29;20422;-68
2023/01/29 04:52:56;;;;;;;28.38;17.35;;;-2.00;99.90;;;;;;2042804;28;20046;-68
2023/01/29 04:54:09;;;;;;;27.52;17.00;;;-2.00;99.90;;;;;;2042508;29;20034;-68
2023/01/29 04:55:20;;;;;;;27.20;17.83;;;-2.00;99.90;;;;;;2040191;29;20223;-71
2023/01/29 04:56:39;;;;;;;;;;;-2.00;99.90;;;;;;2042354;29;20229;-68
2023/01/29 04:58:01;;;;;;;26.13;16.33;;;-2.00;99.90;;;;;;2044362;29;19918;-68
2023/01/29 04:59:08;;;;;;;28.23;16.98;;;-2.10;99.90;;;;;;2042715;29;20557;-69
2023/01/29 05:00:19;;;;;;;29.67;17.77;;;-2.00;99.90;;;;;;2042671;28;20031;-69
2023/01/29 05:01:24;;;;;;;28.15;17.60;;;-2.10;99.90;;;;;;2042652;29;20039;-68
2023/01/29 05:02:27;;;;;;;26.83;16.95;;;-2.00;99.90;;;;;;2038686;29;20028;-70
2023/01/29 05:03:30;;;;;;;28.15;17.73;;;-2.10;99.90;;;;;;2042564;29;20477;-69
2023/01/29 05:04:33;;;;;;;25.10;16.58;;;-2.00;99.90;;;;;;2044582;29;20050;-69
2023/01/29 05:05:34;;;;;;;26.92;17.13;;;-2.10;99.90;;;;;;2042612;29;20495;-69
2023/01/29 05:06:36;;;;;;;26.50;17.67;;;-2.10;99.90;;;;;;2042585;29;20042;-68
2023/01/29 05:07:39;;;;;;;25.63;16.75;;;-2.10;99.90;;;;;;2042614;29;20050;-69
2023/01/29 05:08:40;;;;;;;26.05;16.88;;;-2.10;99.90;;;;;;2044483;29;20042;-69
2023/01/29 05:09:44;;;;;;;28.42;17.75;;;-2.10;99.90;;;;;;2042288;29;20398;-69
2023/01/29 05:10:46;;;;;;;26.25;17.17;;;-2.10;99.90;;;;;;2038258;29;20036;-69
2023/01/29 05:11:49;;;;;;;26.60;17.10;;;-2.10;99.90;;;;;;2033919;29;20034;-68
2023/01/29 05:13:02;;;;;;;26.25;16.90;;;-2.10;99.90;;;;;;2034279;29;20115;-70
2023/01/29 05:14:05;;;;;;;26.13;16.83;;;-2.10;99.90;;;;;;2042538;28;20716;-69
2023/01/29 05:15:13;;;;;;;25.98;16.88;;;-2.00;99.90;;;;;;2033794;29;20067;-70
2023/01/29 05:16:18;;;;;;;28.10;17.20;;;-2.00;99.90;;;;;;2035124;29;20066;-70
2023/01/29 05:17:19;;;;;;;27.13;17.42;;;-2.00;99.90;;;;;;2038291;29;20091;-70
2023/01/29 05:18:20;;;;;;;26.42;17.10;;;-2.00;99.90;;;;;;2048560;28;20085;-69
2023/01/29 05:19:21;;;;;;;25.75;17.20;;;-2.00;99.90;;;;;;2042998;28;20039;-69
2023/01/29 05:20:21;;;;;;;25.60;17.02;;;-2.00;99.90;;;;;;2031560;29;20039;-67
2023/01/29 05:21:23;;;;;;;27.52;17.33;;;-2.10;99.90;;;;;;2030461;29;20030;-69
2023/01/29 05:22:25;;;;;;;26.25;17.00;;;-2.00;99.90;;;;;;2033912;29;20498;-69
2023/01/29 05:23:25;;;;;;;25.95;17.23;;;-2.10;99.90;;;;;;2034324;29;20058;-69
2023/01/29 05:24:26;;;;;;;26.88;17.00;;;-2.00;99.90;;;;;;2044811;29;20526;-70
2023/01/29 05:25:30;;;;;;;27.10;17.52;;;-2.00;99.90;;;;;;2043021;29;20113;-70
2023/01/29 05:28:04;;;;;;;;;;;-2.10;99.90;;;;;;2041546;29;20027;-70
2023/01/29 05:29:05;;;;;;;29.00;15.95;;;-2.00;99.90;;;;;;2045079;29;19925;-71
2023/01/29 05:30:06;;;;;;;28.60;17.15;;;-2.00;99.90;;;;;;2043955;29;20491;-68
2023/01/29 05:31:07;;;;;;;29.92;17.85;;;-2.00;99.90;;;;;;2032915;29;20098;-68
2023/01/29 05:32:08;;;;;;;29.65;17.42;;;-2.00;99.90;;;;;;2033989;29;20024;-71
2023/01/29 05:33:15;;;;;;;27.50;17.10;;;-2.00;99.90;;;;;;2039364;29;20095;-73
2023/01/29 05:34:16;;;;;;;27.02;17.67;;;-2.00;99.90;;;;;;2038022;29;20034;-70
2023/01/29 05:35:16;;;;;;;30.67;17.90;;;-2.00;99.90;;;;;;2044801;29;20058;-72
2023/01/29 05:36:17;;;;;;;28.65;17.50;;;-2.00;99.90;;;;;;2035803;29;20024;-69
2023/01/29 05:37:17;;;;;;;26.17;16.73;;;-2.00;99.90;;;;;;2034091;29;20074;-70
2023/01/29 05:38:19;;;;;;;27.58;18.00;;;-2.00;99.90;;;;;;2033994;29;20091;-68
2023/01/29 05:39:20;;;;;;;29.23;18.23;;;-2.00;99.90;;;;;;2037009;29;20031;-68
2023/01/29 05:40:21;;;;;;;26.65;17.02;;;-2.00;99.90;;;;;;2043298;29;20027;-71
2023/01/29 05:41:21;;;;;;;28.58;18.13;;;-2.00;99.90;;;;;;2044320;29;20484;-69
2023/01/29 05:42:22;;;;;;;26.85;17.45;;;-1.90;99.90;;;;;;2049237;28;20026;-71
2023/01/29 05:43:24;;;;;;;26.65;17.15;;;-2.00;99.90;;;;;;2044843;29;20051;-71
2023/01/29 05:44:25;;;;;;;26.83;16.88;;;-2.00;99.90;;;;;;2046329;29;20267;-71
2023/01/29 05:45:26;;;;;;;26.58;17.00;;;-2.00;99.90;;;;;;2042266;28;20042;-70
2023/01/29 05:46:26;;;;;;;27.23;17.45;;;-2.00;99.90;;;;;;2039447;29;20059;-70
2023/01/29 05:47:27;;;;;;;25.98;16.85;;;-1.90;99.90;;;;;;2036841;29;20040;-69
2023/01/29 05:48:28;;;;;;;25.85;16.90;;;-1.90;99.90;;;;;;2039047;28;20114;-72
2023/01/29 05:49:28;;;;;;;25.90;16.15;;;-1.90;99.90;;;;;;2044960;28;20031;-70
2023/01/29 05:50:29;;;;;;;27.20;16.98;;;-1.90;99.90;;;;;;2043382;28;20458;-69
2023/01/29 05:51:30;;;;;;;27.35;17.83;;;-1.90;99.90;;;;;;2043076;28;20085;-69
2023/01/29 05:52:30;;;;;;;28.35;18.02;;;-1.90;99.90;;;;;;2044912;28;20066;-69
2023/01/29 05:53:31;;;;;;;27.45;17.23;;;-1.90;99.90;;;;;;2042837;28;20029;-79
2023/01/29 05:54:32;;;;;;;25.70;16.42;;;-1.90;99.90;;;;;;2034354;29;20032;-78
2023/01/29 05:55:32;;;;;;;27.40;17.45;;;-1.90;99.90;;;;;;2034027;29;20168;-77
2023/01/29 05:56:33;;;;;;;26.65;17.13;;;-1.90;99.90;;;;;;2049067;28;20058;-77
2023/01/29 05:57:34;;;;;;;28.00;18.20;;;-1.90;99.90;;;;;;2034586;29;20032;-77
2023/01/29 05:58:35;;;;;;;26.75;17.58;;;-1.90;99.90;;;;;;2026364;29;20048;-76
2023/01/29 05:59:35;;;;;;;26.08;16.92;;;-1.90;99.90;;;;;;2026535;29;20175;-78
2023/01/29 06:00:36;;;;;;;26.65;16.98;;;-2.00;99.90;;;;;;2031722;29;20039;-77
2023/01/29 06:01:36;;;;;;;25.77;17.40;;;-2.00;99.90;;;;;;2044776;29;20379;-76
2023/01/29 06:02:37;;;;;;;28.27;17.98;;;-2.00;99.90;;;;;;2042067;29;20031;-77
2023/01/29 06:03:37;;;;;;;28.77;17.83;;;-2.00;99.90;;;;;;2041786;28;20098;-76
2023/01/29 06:04:38;;;;;;;27.83;17.85;;;-2.00;99.90;;;;;;2040782;29;20035;-75
2023/01/29 06:05:39;;;;;;;29.23;17.80;;;-2.00;99.90;;;;;;2042309;28;20058;-77
2023/01/29 06:06:40;;;;;;;27.73;17.95;;;-2.00;99.90;;;;;;2042262;28;20118;-76
2023/01/29 06:07:44;;;;;;;26.80;18.23;;;-2.00;99.90;;;;;;2042307;29;20094;-77
2023/01/29 06:08:44;;;;;;;27.90;18.30;;;-2.00;99.90;;;;;;2042243;29;20051;-78